Bei Facebook empfehlenBei Twitter postenGoogle plusPinterest

Das Wetter im Erzgebirge am 10.03.2015

Wetter und Klima am 10.03.2015 Holzhau im Erzgebirge (630m ü.NN)
Letzte gemessene Temperatur und Uhrzeit der Messung23:45:00 Uhr3.30 °C
Temperatur (Maximum / Höchstwert) und Uhrzeit der Messung13:30:00 Uhr13.50 °C
Temperatur (Minimum / Tiefstwert) und Uhrzeit der Messung07:00:00-2.10 °C
Errechneter Absolutwert der Temperaturschwankungen zwischen Tmin und Tmax des Tages15.60 K
Errechnete Tagesmitteltemperatur5.14479 °C
Gesamt - Niederschlag des Tages (in flüssiger Form)3.10 Liter / m²
Luftdruck (Maximum / Höchstwert) und Zeitpunkt der Messung01:00:00 Uhr1023.50 hPa
Luftdruck (Minimum / Tiefstwert) und Zeitpunkt der Messung16:30:00 Uhr1020.90 hPa
Errechneter Absolutwert der Luftdruckschwankungen des Tages2.60 hPa
Höchste gemessene Windgeschwindigkeit und Uhrzeit der Messung22:45:00 Uhr12.96 km/h
Errechnete Windhäufigkeit in Relation zu den Messwerten des Tages4.16667 %
Niedrigste Windkühle (Windchill) und Zeitpunkt der Messung07:00:00 Uhr-2.10 °C
Taupunkt (Maximum / Höchstwert) und Uhrzeit der Messung15:45:00 Uhr3.80 °C
Taupunkt (Minimum / Tiefstwert) und Uhrzeit der Messung06:45:00-4.70 °C
Anzahl der automatisch eingelesenen Messwerte 96

Detaillierte Wetter- und Klima- Messwerte für den 10.03.2015 in Holzhau im Erzgebirge (630m ü.NN)
ZeitTemperaturLuftdruckRel. LuftfeuchteWindWindrichtungWindchillTaupunktNiederschlag l/m²
23:45:003.30 °C1021.90 hPa91.00 %2.00 °C3.10
23:30:003.30 °C1021.80 hPa91.00 %2.00 °C2.59
23:15:003.40 °C1021.80 hPa91.00 %2.10 °C2.59
23:00:003.50 °C1022.00 hPa91.00 %2.20 °C2.59
22:45:003.80 °C1022.00 hPa91.00 %12.96 km/hSW0.60 °C2.50 °C2.59
22:30:004.30 °C1021.80 hPa91.00 %3.00 °C2.59
22:15:004.80 °C1021.70 hPa91.00 %3.50 °C2.07
22:00:004.80 °C1021.70 hPa90.00 %3.30 °C2.07
21:45:004.80 °C1021.60 hPa90.00 %3.30 °C2.07
21:30:004.90 °C1021.80 hPa90.00 %3.40 °C1.55
21:15:004.90 °C1021.80 hPa90.00 %3.40 °C1.55
21:00:005.10 °C1021.70 hPa89.00 %3.40 °C1.03
20:45:005.10 °C1021.70 hPa88.00 %3.30 °C1.03
20:30:005.10 °C1021.60 hPa88.00 %3.30 °C0.51
20:15:005.20 °C1021.70 hPa87.00 %3.20 °C0.51
20:00:005.40 °C1021.80 hPa87.00 %3.40 °C 
19:45:005.60 °C1021.70 hPa86.00 %3.40 °C 
19:30:005.80 °C1021.70 hPa85.00 %3.50 °C 
19:15:005.90 °C1021.70 hPa82.00 %3.10 °C 
19:00:006.30 °C1021.60 hPa81.00 %3.30 °C 
18:45:006.30 °C1021.50 hPa80.00 %3.10 °C 
18:30:006.40 °C1021.60 hPa78.00 %2.90 °C 
18:15:006.50 °C1021.40 hPa77.00 %2.80 °C 
18:00:006.90 °C1021.20 hPa76.00 %3.00 °C 
17:45:007.30 °C1021.00 hPa75.00 %3.20 °C 
17:30:007.50 °C1021.00 hPa73.00 %3.00 °C 
17:15:008.00 °C1021.00 hPa71.00 %3.10 °C 
17:00:008.50 °C1021.10 hPa69.00 %3.10 °C 
16:45:009.10 °C1021.00 hPa67.00 %3.30 °C 
16:30:009.80 °C1020.90 hPa65.00 %3.50 °C 
16:15:0010.20 °C1021.00 hPa63.00 %3.50 °C 
16:00:0010.60 °C1020.90 hPa62.00 %3.60 °C 
15:45:0011.30 °C1021.10 hPa60.00 %3.80 °C 
15:30:0011.80 °C1021.00 hPa58.00 %3.80 °C 
15:15:0012.10 °C1021.00 hPa56.00 %3.60 °C 
15:00:0012.30 °C1021.00 hPa56.00 %3.80 °C 
14:45:0012.20 °C1020.90 hPa54.00 %3.20 °C 
14:30:0012.30 °C1021.10 hPa51.00 %2.50 °C 
14:15:0013.10 °C1021.00 hPa49.00 %6.12 km/hWSW13.00 °C2.60 °C 
14:00:0013.30 °C1020.90 hPa50.00 %3.10 °C 
13:45:0013.30 °C1021.20 hPa49.00 %2.80 °C 
13:30:0013.50 °C1021.20 hPa49.00 %3.00 °C 
13:15:0013.20 °C1021.10 hPa50.00 %3.00 °C 
13:00:0013.50 °C1021.20 hPa51.00 %3.60 °C 
12:45:0013.20 °C1021.20 hPa50.00 %3.00 °C 
12:30:0013.40 °C1021.50 hPa50.00 %3.20 °C 
12:15:0013.10 °C1021.60 hPa51.00 %3.20 °C 
12:00:0012.90 °C1021.60 hPa52.00 %3.30 °C 
11:45:0012.50 °C1021.80 hPa52.00 %2.90 °C 
11:30:0012.40 °C1021.80 hPa52.00 %2.80 °C 
11:15:0011.90 °C1022.00 hPa54.00 %2.90 °C 
11:00:0011.50 °C1021.90 hPa54.00 %2.50 °C 
10:45:0011.10 °C1022.20 hPa54.00 %2.20 °C 
10:30:0010.50 °C1022.40 hPa54.00 %1.60 °C 
10:15:0010.10 °C1022.40 hPa53.00 %1.00 °C 
10:00:009.90 °C1022.50 hPa55.00 %5.04 km/hW9.60 °C1.30 °C 
09:45:009.20 °C1022.40 hPa64.00 %2.80 °C 
09:30:007.30 °C1022.50 hPa71.00 %2.40 °C 
09:15:005.60 °C1022.60 hPa76.00 %1.70 °C 
09:00:004.10 °C1022.60 hPa80.00 %1.00 °C 
08:45:002.50 °C1022.60 hPa83.00 %-0.10 °C 
08:30:001.20 °C1022.60 hPa85.00 %-1.00 °C 
08:15:00-0.20 °C1022.60 hPa87.00 %-2.30 °C 
08:00:00-1.20 °C1022.50 hPa87.00 %-3.30 °C 
07:45:00-1.60 °C1022.60 hPa86.00 %-3.90 °C 
07:30:00-1.80 °C1022.60 hPa86.00 %-4.10 °C 
07:15:00-1.90 °C1022.60 hPa86.00 %-4.20 °C 
07:00:00-2.10 °C1022.40 hPa85.00 %-4.50 °C 
06:45:00-2.10 °C1022.40 hPa84.00 %-4.70 °C 
06:30:00-1.90 °C1022.40 hPa83.00 %-4.70 °C 
06:15:00-1.50 °C1022.20 hPa82.00 %-4.50 °C 
06:00:00-0.70 °C1022.10 hPa81.00 %-3.90 °C 
05:45:00-0.40 °C1022.00 hPa81.00 %-3.60 °C 
05:30:00-0.10 °C1021.70 hPa81.00 %-3.30 °C 
05:15:00-0.20 °C1021.70 hPa81.00 %-3.40 °C 
05:00:00-0.40 °C1021.80 hPa81.00 %-3.60 °C 
04:45:00-0.60 °C1021.80 hPa82.00 %-3.60 °C 
04:30:00-0.70 °C1021.80 hPa82.00 %-3.70 °C 
04:15:00-1.00 °C1021.80 hPa83.00 %-3.80 °C 
04:00:00-1.10 °C1021.80 hPa82.00 %-4.10 °C 
03:45:00-0.90 °C1022.20 hPa82.00 %-3.90 °C 
03:30:00-0.70 °C1022.40 hPa82.00 %-3.70 °C 
03:15:00-0.40 °C1022.40 hPa81.00 %-3.60 °C 
03:00:00-0.40 °C1022.40 hPa82.00 %-3.40 °C 
02:45:00-0.40 °C1022.70 hPa82.00 %-3.40 °C 
02:30:00-0.80 °C1022.70 hPa82.00 %-3.80 °C 
02:15:00-0.70 °C1022.70 hPa82.00 %-3.70 °C 
02:00:00-0.60 °C1023.10 hPa81.00 %-3.80 °C 
01:45:00-0.40 °C1023.20 hPa80.00 %-3.80 °C 
01:30:000.40 °C1023.20 hPa80.00 %-2.60 °C 
01:15:000.40 °C1023.30 hPa80.00 %-2.60 °C 
01:00:000.40 °C1023.50 hPa80.00 %-2.60 °C 
00:45:000.20 °C1023.20 hPa81.00 %3.24 km/hSO0.20 °C-2.70 °C 
00:30:00-0.10 °C1023.30 hPa81.00 %-3.30 °C 
00:15:000.30 °C1023.40 hPa82.00 %-2.40 °C 
00:00:000.40 °C1023.50 hPa82.00 %-2.30 °C 

Permanenter Link zu dieser Seite: Wetter im Erzgebirge am 10.03.2015
Performance-Info: Die Erstellung der Seite / Statistik(en) / Tabelle(n) erforderte 5 Datenbankserver-Abfrage(n) und dauerte 112 Millisekunden. (Dieser Messwert ist von der Gesamt-Auslastung des Servers abhängig.)
Erzgebirge - Wetter | Erzgebirge - Wetter (Mobilgeräte) | Komplette Klimadatenbank